Time;durP1;ratioP1;P1;durP2;ratioP2;P2;SDS_P1;SDS_P2;PMS_P1;PMS_P2;Temp;Humidity;BMP_temperature;BMP_pressure;BME280_temperature;BME280_humidity;BME280_pressure;Samples;Min_cycle;Max_cycle;Signal;HPM_P1;HPM_P2
2021/08/13 00:00:52;;;;;;;7.85;2.00;;;;;;;18.37;57.09;100283.94;5163189;27;20419;-59
2021/08/13 00:03:20;;;;;;;10.70;2.45;;;;;;;18.35;57.13;100281.47;5153474;27;20030;-59
2021/08/13 00:05:46;;;;;;;7.00;1.77;;;;;;;18.35;57.10;100284.13;5162526;27;20038;-59
2021/08/13 00:08:12;;;;;;;9.23;2.45;;;;;;;18.37;57.31;100284.78;5128502;27;20129;-59
2021/08/13 00:10:37;;;;;;;9.63;1.85;;;;;;;18.37;57.47;100286.59;5163391;27;20476;-60
2021/08/13 00:13:03;;;;;;;7.22;1.95;;;;;;;18.40;57.34;100280.84;5160038;27;20027;-59
2021/08/13 00:15:29;;;;;;;8.35;2.65;;;;;;;18.38;57.47;100280.25;5161283;27;20432;-59
2021/08/13 00:17:55;;;;;;;7.22;1.70;;;;;;;18.39;57.58;100282.72;5142449;27;20026;-59
2021/08/13 00:20:20;;;;;;;5.65;1.70;;;;;;;18.43;57.51;100288.47;5154898;27;20026;-59
2021/08/13 00:22:47;;;;;;;7.93;1.90;;;;;;;18.43;57.66;100286.63;5162098;27;20420;-59
2021/08/13 00:25:13;;;;;;;5.45;2.13;;;;;;;18.43;57.43;100291.16;5159773;27;20058;-59
2021/08/13 00:27:39;;;;;;;4.82;1.80;;;;;;;18.45;57.53;100291.78;5159882;27;20426;-59
2021/08/13 00:30:06;;;;;;;4.22;1.63;;;;;;;18.44;57.64;100287.47;5154634;27;20366;-60
2021/08/13 00:32:33;;;;;;;7.10;1.80;;;;;;;18.40;57.73;100291.56;5139240;27;20042;-60
2021/08/13 00:34:59;;;;;;;5.78;1.92;;;;;;;18.35;57.56;100289.47;5126319;27;20106;-59
2021/08/13 00:37:25;;;;;;;8.55;2.15;;;;;;;18.30;57.61;100282.06;5135344;27;20035;-59
2021/08/13 00:39:51;;;;;;;7.15;2.05;;;;;;;18.31;57.79;100280.22;5148443;27;20038;-59
2021/08/13 00:42:17;;;;;;;9.00;2.20;;;;;;;18.30;57.69;100282.06;5147252;27;20379;-59
2021/08/13 00:44:45;;;;;;;5.15;1.60;;;;;;;18.29;57.78;100290.28;5148725;27;20034;-59
2021/08/13 00:47:10;;;;;;;6.32;1.83;;;;;;;18.28;57.80;100294.00;5171280;27;20034;-59
2021/08/13 00:49:59;;;;;;;12.13;2.83;;;;;;;18.28;58.02;100300.19;5155701;27;20114;-59
2021/08/13 00:52:33;;;;;;;10.45;2.00;;;;;;;18.25;57.92;100284.50;5154379;27;20031;-59
2021/08/13 00:54:58;;;;;;;7.88;2.20;;;;;;;18.23;57.96;100282.03;5154409;27;20041;-59
2021/08/13 00:57:41;;;;;;;14.15;2.80;;;;;;;18.22;58.07;100282.22;5155022;27;20519;-59
2021/08/13 01:00:28;;;;;;;7.03;1.63;;;;;;;18.26;57.75;100285.34;5154211;27;20035;-59
2021/08/13 01:02:55;;;;;;;7.20;1.98;;;;;;;18.25;58.01;100287.19;5154274;27;20493;-60
2021/08/13 01:05:21;;;;;;;8.57;1.95;;;;;;;18.20;57.62;100281.63;5154770;27;20030;-60
2021/08/13 01:07:48;;;;;;;10.60;2.75;;;;;;;18.16;57.62;100278.50;5136924;27;20465;-60
2021/08/13 01:10:24;;;;;;;7.13;2.33;;;;;;;18.14;57.49;100279.75;5154221;27;20031;-60
2021/08/13 01:13:03;;;;;;;7.88;2.05;;;;;;;18.14;57.76;100277.88;5154038;27;20618;-60
2021/08/13 01:15:32;;;;;;;7.78;2.05;;;;;;;18.09;57.86;100269.59;5155363;27;20082;-60
2021/08/13 01:18:05;;;;;;;6.85;1.77;;;;;;;18.08;57.96;100263.44;5154163;27;20110;-60
2021/08/13 01:20:46;;;;;;;6.95;1.85;;;;;;;18.07;57.97;100263.63;5153976;27;20034;-59
2021/08/13 01:23:29;;;;;;;7.50;1.95;;;;;;;18.08;57.70;100268.78;5136543;27;20378;-59
2021/08/13 01:26:01;;;;;;;10.35;1.75;;;;;;;18.05;57.84;100263.81;5153894;27;20062;-60
2021/08/13 01:28:51;;;;;;;7.90;1.83;;;;;;;18.06;57.74;100265.47;5153595;27;20091;-59
2021/08/13 01:31:23;;;;;;;9.20;2.40;;;;;;;18.00;57.81;100252.09;5153531;27;20042;-60
2021/08/13 01:34:04;;;;;;;11.18;2.15;;;;;;;17.98;57.89;100253.09;5153657;27;20041;-59
2021/08/13 01:36:32;;;;;;;9.35;2.15;;;;;;;17.97;58.07;100255.97;5132791;27;20079;-60
2021/08/13 01:39:02;;;;;;;9.43;2.47;;;;;;;17.92;58.32;100253.88;5115716;27;20058;-59
2021/08/13 01:41:31;;;;;;;9.30;2.83;;;;;;;17.93;58.16;100262.75;5133820;27;20478;-59
2021/08/13 01:43:58;;;;;;;9.15;1.90;;;;;;;17.90;58.66;100268.47;5115708;27;20301;-60
2021/08/13 01:46:24;;;;;;;7.50;2.35;;;;;;;17.89;58.41;100264.13;5115845;27;20106;-59
2021/08/13 01:48:58;;;;;;;8.75;2.22;;;;;;;17.89;58.45;100266.81;5152801;27;20034;-60
2021/08/13 01:51:29;;;;;;;9.93;1.92;;;;;;;17.93;58.54;100263.53;5153115;27;20031;-59
2021/08/13 01:53:55;;;;;;;9.55;2.05;;;;;;;17.92;58.47;100259.22;5153340;27;20037;-59
2021/08/13 01:56:26;;;;;;;9.52;2.00;;;;;;;17.90;58.69;100255.13;5153103;27;20027;-60
2021/08/13 01:59:10;;;;;;;8.65;2.00;;;;;;;17.89;58.47;100256.94;5153726;27;20035;-60
2021/08/13 02:01:37;;;;;;;9.27;2.05;;;;;;;17.90;58.25;100263.13;5153168;27;20033;-59
2021/08/13 02:04:04;;;;;;;7.85;2.00;;;;;;;17.83;58.67;100255.91;5153060;27;20500;-59
2021/08/13 02:06:32;;;;;;;9.40;2.30;;;;;;;17.85;58.69;100261.84;5152979;27;20033;-59
2021/08/13 02:09:03;;;;;;;6.55;1.75;;;;;;;17.82;58.65;100253.44;5153188;27;20441;-60
2021/08/13 02:11:35;;;;;;;9.05;2.13;;;;;;;17.80;58.85;100258.13;5152769;27;20039;-60
2021/08/13 02:14:02;;;;;;;11.10;2.50;;;;;;;17.79;59.02;100251.97;5152894;27;20114;-59
2021/08/13 02:16:30;;;;;;;8.05;2.08;;;;;;;17.76;59.24;100264.91;5151742;27;20030;-60
2021/08/13 02:19:06;;;;;;;7.55;2.10;;;;;;;17.78;59.13;100266.34;5152750;27;20038;-60
2021/08/13 02:21:37;;;;;;;9.95;2.42;;;;;;;17.77;59.33;100254.03;5153098;27;20039;-59
2021/08/13 02:24:04;;;;;;;9.63;2.20;;;;;;;17.76;59.27;100251.53;5152883;27;20045;-59
2021/08/13 02:26:31;;;;;;;9.32;1.83;;;;;;;17.73;59.60;100258.94;5152856;27;20147;-59
2021/08/13 02:28:57;;;;;;;8.68;1.80;;;;;;;17.72;59.64;100257.28;5152517;27;20470;-59
2021/08/13 02:31:23;;;;;;;10.60;2.15;;;;;;;17.73;59.69;100263.44;5152406;27;20031;-59
2021/08/13 02:33:49;;;;;;;8.40;2.28;;;;;;;17.71;59.57;100252.13;5152634;27;20437;-60
2021/08/13 02:36:23;;;;;;;8.63;2.20;;;;;;;17.68;59.45;100258.69;5135285;27;20070;-59
2021/08/13 02:39:12;;;;;;;12.95;2.72;;;;;;;17.64;59.80;100248.59;5135367;27;20052;-60
2021/08/13 02:41:42;;;;;;;8.00;1.98;;;;;;;17.63;59.57;100247.75;5135003;27;20496;-59
2021/08/13 02:44:09;;;;;;;9.30;1.77;;;;;;;17.61;59.88;100250.63;5135308;27;20422;-59
2021/08/13 02:46:42;;;;;;;10.05;2.08;;;;;;;17.60;59.61;100251.66;5134920;27;20058;-60
2021/08/13 02:49:11;;;;;;;7.68;1.83;;;;;;;17.58;59.62;100256.34;5152247;27;20496;-60
2021/08/13 02:51:40;;;;;;;8.45;2.22;;;;;;;17.59;59.69;100249.16;5152089;27;20031;-60
2021/08/13 02:54:11;;;;;;;10.82;2.08;;;;;;;17.61;59.37;100260.50;5152260;27;20034;-59
2021/08/13 02:56:40;;;;;;;6.40;1.73;;;;;;;17.56;59.44;100250.41;5152158;27;20070;-60
2021/08/13 02:59:09;;;;;;;10.25;2.13;;;;;;;17.55;59.58;100253.28;5152669;27;20027;-59
2021/08/13 03:01:38;;;;;;;9.00;1.90;;;;;;;17.51;59.67;100254.66;5153160;27;20038;-59
2021/08/13 03:04:08;;;;;;;7.93;2.17;;;;;;;17.51;59.68;100249.31;5151902;27;20163;-60
2021/08/13 03:06:37;;;;;;;5.90;1.65;;;;;;;17.51;59.84;100252.81;5151901;27;20039;-60
2021/08/13 03:09:06;;;;;;;7.88;2.05;;;;;;;17.48;59.75;100253.22;5151931;27;20037;-59
2021/08/13 03:11:33;;;;;;;9.38;2.05;;;;;;;17.46;59.69;100247.22;5151764;27;20113;-59
2021/08/13 03:14:01;;;;;;;7.47;1.85;;;;;;;17.50;59.59;100242.34;5151758;27;20023;-60
2021/08/13 03:16:34;;;;;;;6.28;1.75;;;;;;;17.46;59.78;100253.41;5152099;27;20033;-60
2021/08/13 03:19:00;;;;;;;7.65;2.22;;;;;;;17.46;60.11;100237.38;5151749;27;20094;-60
2021/08/13 03:21:28;;;;;;;9.20;2.15;;;;;;;17.46;59.94;100236.53;5151791;27;20026;-60
2021/08/13 03:23:55;;;;;;;9.25;2.65;;;;;;;17.46;59.93;100240.06;5151833;27;20030;-60
2021/08/13 03:26:22;;;;;;;7.32;1.80;;;;;;;17.44;59.80;100231.41;5152921;27;20102;-60
2021/08/13 03:28:48;;;;;;;8.38;2.20;;;;;;;17.45;59.80;100237.56;5151046;27;20142;-60
2021/08/13 03:31:37;;;;;;;11.68;2.30;;;;;;;17.39;59.93;100231.16;5151879;27;20473;-60
2021/08/13 03:34:06;;;;;;;10.23;2.25;;;;;;;17.40;60.22;100232.81;5151622;27;20034;-59
2021/08/13 03:36:33;;;;;;;8.40;1.92;;;;;;;17.39;59.97;100235.69;5134081;27;20374;-60
2021/08/13 03:38:59;;;;;;;11.73;2.03;;;;;;;17.34;60.19;100233.59;5134251;27;20396;-60
2021/08/13 03:41:25;;;;;;;10.32;2.20;;;;;;;17.34;60.13;100239.75;5134219;27;20079;-60
2021/08/13 03:43:52;;;;;;;6.47;2.10;;;;;;;17.33;60.27;100243.44;5134115;27;20045;-59
2021/08/13 03:46:18;;;;;;;8.45;2.58;;;;;;;17.33;60.12;100243.44;5134195;27;20114;-60
2021/08/13 03:48:44;;;;;;;7.90;2.22;;;;;;;17.34;60.21;100249.63;5149119;27;20050;-60
2021/08/13 03:51:11;;;;;;;8.68;1.85;;;;;;;17.35;60.15;100253.94;5133945;27;20035;-60
2021/08/13 03:53:37;;;;;;;7.53;2.00;;;;;;;17.34;60.18;100245.09;5151378;27;20083;-60
2021/08/13 03:56:03;;;;;;;9.60;2.40;;;;;;;17.30;60.31;100238.50;5151342;27;20027;-60
2021/08/13 03:58:31;;;;;;;9.73;2.08;;;;;;;17.32;60.31;100243.66;5151904;27;20045;-60
2021/08/13 04:00:57;;;;;;;8.57;2.38;;;;;;;17.33;60.50;100240.78;5151267;27;20086;-59
2021/08/13 04:03:23;;;;;;;7.80;2.00;;;;;;;17.33;60.25;100239.94;5151377;27;20023;-60
2021/08/13 04:05:50;;;;;;;11.05;2.45;;;;;;;17.29;60.73;100242.19;5133823;27;20031;-60
2021/08/13 04:08:16;;;;;;;6.78;1.90;;;;;;;17.32;60.46;100230.28;5151292;27;20025;-60
2021/08/13 04:10:42;;;;;;;10.32;2.42;;;;;;;17.31;60.70;100231.31;5152308;27;20031;-60
2021/08/13 04:13:08;;;;;;;5.18;1.48;;;;;;;17.32;60.65;100235.63;5151140;27;20033;-60
2021/08/13 04:15:40;;;;;;;9.77;2.33;;;;;;;17.29;60.80;100238.69;5151209;27;20030;-60
2021/08/13 04:18:06;;;;;;;9.43;2.03;;;;;;;17.26;60.49;100241.75;5151219;27;20046;-60
2021/08/13 04:20:32;;;;;;;9.07;2.17;;;;;;;17.27;60.60;100246.06;5151132;27;20098;-60
2021/08/13 04:23:00;;;;;;;7.57;1.40;;;;;;;17.24;60.79;100241.94;5151123;27;20111;-60
2021/08/13 04:25:26;;;;;;;5.55;1.80;;;;;;;17.25;60.76;100245.44;5151057;27;20112;-60
2021/08/13 04:27:55;;;;;;;10.02;2.15;;;;;;;17.26;60.70;100255.94;5150838;27;20102;-60
2021/08/13 04:30:22;;;;;;;12.75;2.28;;;;;;;17.27;60.74;100254.06;5152398;27;20488;-60
2021/08/13 04:32:48;;;;;;;8.73;1.88;;;;;;;17.25;60.75;100250.78;5151077;27;20035;-60
2021/08/13 04:35:14;;;;;;;6.50;1.70;;;;;;;17.22;60.84;100241.31;5152090;27;20035;-59
2021/08/13 04:37:40;;;;;;;8.57;2.70;;;;;;;17.19;60.92;100247.88;5133704;27;20031;-59
2021/08/13 04:40:07;;;;;;;10.55;2.00;;;;;;;17.20;60.96;100254.03;5135100;27;20496;-60
2021/08/13 04:42:39;;;;;;;6.63;1.83;;;;;;;17.22;60.85;100263.50;5137407;27;20119;-60
2021/08/13 04:45:06;;;;;;;5.03;1.63;;;;;;;17.22;60.93;100260.84;5137318;27;20122;-60
2021/08/13 04:47:32;;;;;;;11.65;3.50;;;;;;;17.22;60.79;100246.66;5142177;27;20442;-60
2021/08/13 04:49:59;;;;;;;12.27;2.30;;;;;;;17.24;60.57;100263.31;5137477;27;20042;-60
2021/08/13 04:52:24;;;;;;;8.13;2.40;;;;;;;17.20;60.73;100262.88;5154310;27;20501;-60
2021/08/13 04:54:51;;;;;;;8.65;2.45;;;;;;;17.25;60.50;100272.16;5154500;27;20526;-59
2021/08/13 04:57:17;;;;;;;5.97;1.52;;;;;;;17.24;60.84;100274.00;5154972;27;20034;-60
2021/08/13 04:59:43;;;;;;;6.00;1.90;;;;;;;17.25;60.69;100282.84;5154651;27;20031;-60
2021/08/13 05:02:12;;;;;;;8.10;1.90;;;;;;;17.22;60.62;100297.38;5154277;27;20037;-59
2021/08/13 05:04:38;;;;;;;7.43;1.90;;;;;;;17.19;60.83;100295.09;5154255;27;20031;-59
2021/08/13 05:07:03;;;;;;;10.05;2.42;;;;;;;17.20;60.90;100296.78;5154273;27;20023;-60
2021/08/13 05:09:30;;;;;;;11.95;2.47;;;;;;;17.19;60.82;100292.44;5154233;27;20470;-60
2021/08/13 05:11:55;;;;;;;11.93;2.53;;;;;;;17.17;60.94;100284.63;5154008;27;20039;-60
2021/08/13 05:14:21;;;;;;;9.55;2.13;;;;;;;17.17;60.81;100289.16;5155327;27;20088;-60
2021/08/13 05:16:48;;;;;;;6.07;1.85;;;;;;;17.18;60.93;100294.28;5154051;27;20035;-60
2021/08/13 05:19:14;;;;;;;7.90;1.67;;;;;;;17.18;61.04;100293.47;5153969;27;20027;-60
2021/08/13 05:21:40;;;;;;;5.15;1.60;;;;;;;17.17;60.98;100297.16;5153892;27;20034;-59
2021/08/13 05:24:08;;;;;;;9.07;2.05;;;;;;;17.16;61.18;100285.66;5153853;27;20045;-59
2021/08/13 05:26:34;;;;;;;6.95;1.55;;;;;;;17.18;61.05;100299.63;5153930;27;20031;-60
2021/08/13 05:29:03;;;;;;;9.25;2.17;;;;;;;17.17;61.09;100305.97;5153517;27;20473;-60
2021/08/13 05:31:29;;;;;;;6.82;1.60;;;;;;;17.19;60.84;100311.13;5153697;27;20053;-60
2021/08/13 05:33:55;;;;;;;8.00;2.35;;;;;;;17.17;60.97;100313.19;5153668;27;20122;-60
2021/08/13 05:36:22;;;;;;;6.65;1.70;;;;;;;17.17;61.03;100308.66;5136342;27;20035;-60
2021/08/13 05:38:47;;;;;;;12.88;2.05;;;;;;;17.16;60.90;100315.03;5154878;27;20404;-60
2021/08/13 05:41:13;;;;;;;8.90;1.88;;;;;;;17.16;61.21;100320.38;5119097;27;20114;-60
2021/08/13 05:43:42;;;;;;;9.05;2.53;;;;;;;17.19;61.34;100317.31;5119559;27;20038;-60
2021/08/13 05:46:08;;;;;;;6.63;1.60;;;;;;;17.17;60.78;100324.69;5136228;27;20027;-60
2021/08/13 05:48:33;;;;;;;9.38;2.20;;;;;;;17.20;61.06;100318.94;5149624;27;20043;-59
2021/08/13 05:50:59;;;;;;;8.93;2.20;;;;;;;17.20;61.05;100323.50;5153126;27;20426;-60
2021/08/13 05:53:26;;;;;;;7.95;1.75;;;;;;;17.20;61.01;100326.16;5153386;27;20041;-60
2021/08/13 05:55:52;;;;;;;6.45;1.67;;;;;;;17.18;60.91;100321.00;5153505;27;20489;-60
2021/08/13 05:58:18;;;;;;;8.95;1.90;;;;;;;17.17;60.99;100323.88;5153803;27;20409;-60
2021/08/13 06:00:43;;;;;;;7.05;2.05;;;;;;;17.15;61.25;100326.72;5153325;27;20038;-60
2021/08/13 06:03:09;;;;;;;8.55;2.05;;;;;;;17.13;61.09;100322.56;5154374;27;20504;-60
2021/08/13 06:05:43;;;;;;;5.20;1.42;;;;;;;17.11;61.12;100333.44;5153094;27;20065;-60
2021/08/13 06:08:11;;;;;;;9.00;2.50;;;;;;;17.14;61.22;100335.75;5153337;27;20069;-60
2021/08/13 06:10:37;;;;;;;9.65;1.98;;;;;;;17.09;61.12;100333.63;5153115;27;20038;-60
2021/08/13 06:13:03;;;;;;;8.13;1.88;;;;;;;17.09;61.09;100340.81;5152794;27;20477;-60
2021/08/13 06:15:29;;;;;;;6.93;2.55;;;;;;;17.08;61.10;100324.00;5152874;27;20087;-60
2021/08/13 06:17:55;;;;;;;9.43;1.55;;;;;;;17.07;61.20;100332.97;5153191;27;20030;-59
2021/08/13 06:20:22;;;;;;;11.00;2.00;;;;;;;17.07;61.31;100338.31;5152699;27;20031;-59
2021/08/13 06:23:10;;;;;;;7.20;2.28;;;;;;;17.06;61.34;100341.16;5135445;27;20038;-59
2021/08/13 06:25:36;;;;;;;9.68;2.33;;;;;;;17.07;61.49;100340.16;5152686;27;20085;-60
2021/08/13 06:28:03;;;;;;;9.10;2.22;;;;;;;17.03;61.36;100339.72;5152594;27;20035;-60
2021/08/13 06:30:29;;;;;;;8.68;1.77;;;;;;;17.03;61.69;100329.03;5153802;27;20035;-60
2021/08/13 06:32:55;;;;;;;8.50;2.00;;;;;;;17.05;61.74;100336.84;5152496;27;20083;-60
2021/08/13 06:35:24;;;;;;;7.82;1.77;;;;;;;17.05;61.63;100340.38;5142956;27;20031;-60
2021/08/13 06:37:52;;;;;;;9.93;2.15;;;;;;;17.09;61.67;100343.50;5135272;27;20054;-60
2021/08/13 06:40:18;;;;;;;9.27;1.98;;;;;;;17.08;61.85;100333.84;5135172;27;20106;-60
2021/08/13 06:42:45;;;;;;;10.63;1.88;;;;;;;17.07;61.86;100349.00;5135168;27;20476;-60
2021/08/13 06:45:15;;;;;;;8.00;2.10;;;;;;;17.06;62.04;100343.84;5135162;27;20432;-60
2021/08/13 06:47:41;;;;;;;7.78;1.98;;;;;;;17.04;62.14;100346.69;5141102;27;20031;-59
2021/08/13 06:50:08;;;;;;;9.68;1.98;;;;;;;17.05;62.21;100337.69;5152214;27;20031;-60
2021/08/13 06:52:38;;;;;;;11.02;2.20;;;;;;;17.04;62.17;100348.56;5152192;27;20035;-60
2021/08/13 06:55:06;;;;;;;7.95;1.92;;;;;;;17.02;62.39;100348.75;5152109;27;20030;-60
2021/08/13 06:57:32;;;;;;;10.23;2.28;;;;;;;17.02;62.58;100354.09;5152683;27;20653;-58
2021/08/13 07:00:01;;;;;;;6.22;1.70;;;;;;;17.05;62.42;100352.88;5153342;27;20505;-60
2021/08/13 07:02:27;;;;;;;8.88;2.03;;;;;;;17.05;62.28;100351.03;5151639;27;20448;-60
2021/08/13 07:04:53;;;;;;;7.82;2.00;;;;;;;17.07;62.19;100353.53;5151983;27;20483;-60
2021/08/13 07:07:20;;;;;;;8.32;1.77;;;;;;;17.06;62.17;100342.00;5151878;27;20035;-59
2021/08/13 07:09:47;;;;;;;9.73;1.98;;;;;;;17.05;62.53;100352.88;5151954;27;20035;-60
2021/08/13 07:12:15;;;;;;;10.85;2.47;;;;;;;17.04;62.64;100352.03;5151748;27;20039;-60
2021/08/13 07:14:42;;;;;;;11.40;2.17;;;;;;;17.06;62.41;100362.53;5134538;27;20065;-60
2021/08/13 07:17:08;;;;;;;11.82;2.33;;;;;;;17.05;62.43;100364.41;5151854;27;20449;-60
2021/08/13 07:19:35;;;;;;;12.75;3.08;;;;;;;17.06;62.44;100359.84;5151721;27;20378;-60
2021/08/13 07:22:03;;;;;;;10.82;2.20;;;;;;;17.04;62.54;100367.25;5151736;27;20047;-60
2021/08/13 07:24:30;;;;;;;12.32;3.25;;;;;;;17.03;62.44;100366.41;5151599;27;20495;-59
2021/08/13 07:26:56;;;;;;;8.48;2.03;;;;;;;17.03;62.66;100358.41;5151552;27;20026;-60
2021/08/13 07:29:23;;;;;;;10.95;2.38;;;;;;;17.01;62.48;100363.09;5151591;27;20035;-60
2021/08/13 07:31:49;;;;;;;8.90;2.40;;;;;;;17.01;62.61;100355.09;5151459;27;20076;-60
2021/08/13 07:34:15;;;;;;;9.85;2.58;;;;;;;17.00;62.42;100366.78;5150464;27;20030;-60
2021/08/13 07:36:41;;;;;;;12.25;2.33;;;;;;;16.99;62.85;100357.13;5134032;27;20577;-59
2021/08/13 07:39:07;;;;;;;13.02;2.22;;;;;;;16.97;62.97;100357.34;5133715;27;20031;-60
2021/08/13 07:41:32;;;;;;;10.63;2.35;;;;;;;16.96;62.59;100363.66;5134966;27;20030;-60
2021/08/13 07:43:58;;;;;;;10.27;1.85;;;;;;;16.96;62.68;100363.66;5172860;27;20109;-59
2021/08/13 07:46:24;;;;;;;13.00;2.10;;;;;;;16.96;62.97;100363.66;5154656;27;20037;-60
2021/08/13 07:48:50;;;;;;;14.88;2.38;;;;;;;16.97;62.91;100373.34;5153921;27;20032;-60
2021/08/13 07:51:16;;;;;;;9.07;2.10;;;;;;;16.96;62.91;100381.56;5136804;27;20062;-60
2021/08/13 07:53:42;;;;;;;9.27;1.70;;;;;;;16.96;63.14;100373.53;5134643;27;20496;-59
2021/08/13 07:56:09;;;;;;;12.38;2.58;;;;;;;16.97;63.38;100380.53;5129049;28;20115;-60
2021/08/13 07:58:36;;;;;;;11.32;2.90;;;;;;;16.97;63.12;100380.53;5130061;28;20066;-60
2021/08/13 08:01:02;;;;;;;10.65;3.42;;;;;;;16.96;63.20;100365.53;5129710;28;20439;-60
2021/08/13 08:03:28;;;;;;;13.63;3.33;;;;;;;16.96;63.10;100369.00;5144770;27;20039;-60
2021/08/13 08:05:54;;;;;;;13.98;2.20;;;;;;;16.95;63.35;100372.69;5151416;27;20031;-60
2021/08/13 08:08:19;;;;;;;15.40;2.40;;;;;;;16.97;63.23;100377.84;5151766;27;20034;-60
2021/08/13 08:10:48;;;;;;;40.03;7.45;;;;;;;16.98;63.50;100372.31;5151566;27;20035;-59
2021/08/13 08:13:17;;;;;;;29.60;7.03;;;;;;;16.95;63.98;100385.22;5151355;27;20096;-59
2021/08/13 08:15:45;;;;;;;34.25;6.75;;;;;;;16.95;64.15;100378.03;5154181;27;20039;-60
2021/08/13 08:18:11;;;;;;;21.25;4.68;;;;;;;16.96;63.82;100381.56;5176584;27;20026;-60
2021/08/13 08:20:37;;;;;;;20.70;4.35;;;;;;;16.96;64.01;100389.56;5168918;27;20113;-59
2021/08/13 08:23:03;;;;;;;18.33;4.35;;;;;;;16.96;63.97;100400.25;5154612;27;20485;-60
2021/08/13 08:25:29;;;;;;;21.60;3.75;;;;;;;16.97;63.60;100397.38;5162318;27;20030;-59
2021/08/13 08:27:55;;;;;;;11.50;3.03;;;;;;;16.98;63.76;100388.34;5160788;27;20046;-60
2021/08/13 08:30:30;;;;;;;18.80;3.20;;;;;;;16.97;64.04;100393.88;5157027;27;20392;-60
2021/08/13 08:32:56;;;;;;;13.07;3.33;;;;;;;16.99;63.40;100397.19;5164415;27;20034;-60
2021/08/13 08:35:22;;;;;;;15.20;3.78;;;;;;;16.97;63.36;100401.88;5128723;27;20039;-60
2021/08/13 08:37:59;;;;;;;13.35;2.85;;;;;;;16.99;63.36;100410.53;5155028;27;20031;-60
2021/08/13 08:40:37;;;;;;;11.98;3.58;;;;;;;16.98;62.87;100406.19;5153752;27;20027;-60
2021/08/13 08:43:06;;;;;;;16.10;3.10;;;;;;;16.99;63.03;100410.53;5155999;27;20035;-60
2021/08/13 08:45:35;;;;;;;15.27;3.38;;;;;;;16.99;63.05;100413.22;5155819;27;20106;-60
2021/08/13 08:48:06;;;;;;;13.57;3.15;;;;;;;17.00;62.92;100412.19;5155805;27;20034;-60
2021/08/13 08:50:35;;;;;;;11.07;2.00;;;;;;;17.01;62.75;100413.03;5155756;27;20033;-60
2021/08/13 08:53:03;;;;;;;10.45;2.42;;;;;;;17.03;62.84;100417.16;5163923;27;20042;-60
2021/08/13 08:55:29;;;;;;;14.00;2.50;;;;;;;16.99;62.53;100419.34;5176479;27;20030;-60
2021/08/13 08:57:55;;;;;;;14.02;2.30;;;;;;;16.99;62.35;100422.03;5164272;27;20550;-60
2021/08/13 09:00:24;;;;;;;9.48;2.65;;;;;;;17.01;62.46;100419.16;5155182;27;20034;-60
2021/08/13 09:02:50;;;;;;;15.13;2.70;;;;;;;16.99;62.35;100427.38;5154951;27;20054;-60
2021/08/13 09:05:16;;;;;;;7.75;2.40;;;;;;;17.02;62.70;100430.69;5154805;27;20030;-60
2021/08/13 09:07:42;;;;;;;9.07;2.05;;;;;;;17.03;62.39;100430.50;5156970;27;20035;-60
2021/08/13 09:10:11;;;;;;;10.40;2.22;;;;;;;17.05;62.57;100423.13;5168714;27;20061;-60
2021/08/13 09:12:38;;;;;;;8.93;2.13;;;;;;;17.04;62.17;100423.31;5153733;27;20049;-60
2021/08/13 09:15:07;;;;;;;9.13;1.65;;;;;;;17.04;61.78;100420.66;5136106;27;20031;-60
2021/08/13 09:17:33;;;;;;;8.07;2.28;;;;;;;17.03;61.77;100427.00;5154023;27;20035;-60
2021/08/13 09:19:59;;;;;;;10.18;2.30;;;;;;;17.00;61.47;100433.53;5154783;27;20042;-60
2021/08/13 09:22:25;;;;;;;8.63;1.83;;;;;;;17.02;61.67;100431.53;5154573;27;20068;-60
2021/08/13 09:24:55;;;;;;;7.00;2.05;;;;;;;17.06;61.64;100424.78;5154273;27;20037;-60
2021/08/13 09:27:45;;;;;;;8.65;1.83;;;;;;;17.07;61.64;100430.97;5131774;27;20405;-60
2021/08/13 09:30:28;;;;;;;6.90;1.80;;;;;;;17.08;61.69;100429.97;5132499;27;20621;-60
2021/08/13 09:33:05;;;;;;;7.55;2.10;;;;;;;17.09;61.79;100428.94;5132445;27;20572;-60
2021/08/13 09:35:32;;;;;;;6.75;1.58;;;;;;;17.08;61.56;100437.97;5146110;27;20058;-60
2021/08/13 09:38:00;;;;;;;6.25;1.63;;;;;;;17.09;61.71;100426.28;5153663;27;20035;-60
2021/08/13 09:40:26;;;;;;;8.63;1.85;;;;;;;17.11;61.63;100427.75;5154357;27;20477;-60
2021/08/13 09:43:01;;;;;;;8.77;2.10;;;;;;;17.13;61.55;100435.56;5154303;27;20042;-60
2021/08/13 09:45:30;;;;;;;8.88;1.73;;;;;;;17.12;61.57;100439.25;5133005;27;20117;-60
2021/08/13 09:47:56;;;;;;;7.18;1.98;;;;;;;17.14;61.71;100436.41;5130658;27;20031;-59
2021/08/13 09:50:42;;;;;;;10.73;1.50;;;;;;;17.16;61.71;100439.69;5153314;27;20073;-60
2021/08/13 09:53:12;;;;;;;7.38;1.60;;;;;;;17.17;61.74;100450.19;5152803;27;20045;-60
2021/08/13 09:55:40;;;;;;;6.50;1.80;;;;;;;17.16;61.78;100456.56;5122284;27;20047;-60
2021/08/13 09:58:09;;;;;;;6.47;1.40;;;;;;;17.17;61.58;100452.88;5124492;27;20516;-60
2021/08/13 10:00:44;;;;;;;7.25;1.45;;;;;;;17.17;61.86;100460.88;5153192;27;20516;-60
2021/08/13 10:03:10;;;;;;;13.40;2.55;;;;;;;17.19;61.89;100466.88;5127201;27;20148;-60
2021/08/13 10:05:37;;;;;;;7.20;1.70;;;;;;;17.21;61.80;100474.69;5134927;27;20035;-60
2021/08/13 10:08:04;;;;;;;9.45;1.85;;;;;;;17.21;61.90;100474.69;5118819;27;20107;-60
2021/08/13 10:10:33;;;;;;;10.02;1.90;;;;;;;17.22;62.05;100471.84;5114110;27;20027;-60
2021/08/13 10:13:06;;;;;;;7.30;1.70;;;;;;;17.23;61.31;100467.34;5132400;27;20562;-60
2021/08/13 10:15:45;;;;;;;7.65;2.00;;;;;;;17.24;61.50;100482.34;5134616;27;20526;-60
2021/08/13 10:18:17;;;;;;;9.35;1.50;;;;;;;17.26;61.62;100487.50;5133880;27;20088;-60
2021/08/13 10:20:49;;;;;;;6.72;1.38;;;;;;;17.26;61.49;100491.00;5134789;27;20501;-60
2021/08/13 10:23:19;;;;;;;9.88;1.52;;;;;;;17.28;61.82;100493.47;5141541;27;20197;-60
2021/08/13 10:25:47;;;;;;;9.57;2.17;;;;;;;17.28;61.44;100494.28;5152943;27;20041;-60
2021/08/13 10:28:17;;;;;;;7.13;1.25;;;;;;;17.29;61.73;100500.47;5146301;27;20038;-60
2021/08/13 10:30:48;;;;;;;7.30;1.92;;;;;;;17.32;61.49;100494.75;5134594;27;20398;-61
2021/08/13 10:33:15;;;;;;;10.13;1.88;;;;;;;17.32;61.67;100492.06;5134224;27;20083;-60
2021/08/13 10:35:49;;;;;;;6.30;1.85;;;;;;;17.31;61.39;100493.91;5130528;27;20034;-60
2021/08/13 10:38:19;;;;;;;10.63;2.22;;;;;;;17.31;61.32;100493.91;5129575;27;20572;-60
2021/08/13 10:40:47;;;;;;;8.15;1.92;;;;;;;17.33;61.27;100489.22;5130650;27;20027;-60
2021/08/13 10:43:26;;;;;;;9.43;1.83;;;;;;;17.35;61.31;100491.69;5113668;27;20477;-60
2021/08/13 10:45:53;;;;;;;7.78;1.73;;;;;;;17.35;60.81;100487.19;5130259;27;20031;-60
2021/08/13 10:48:27;;;;;;;8.90;1.42;;;;;;;17.36;61.14;100493.34;5140125;27;20041;-60
2021/08/13 10:50:56;;;;;;;6.72;1.60;;;;;;;17.38;59.95;100501.16;5133706;27;20117;-60
2021/08/13 10:53:38;;;;;;;8.65;1.85;;;;;;;17.39;60.38;100494.84;5133849;27;20114;-60
2021/08/13 10:56:12;;;;;;;5.55;1.90;;;;;;;17.39;60.30;100494.84;5152139;27;20057;-60
2021/08/13 10:58:40;;;;;;;7.55;1.50;;;;;;;17.41;59.83;100498.13;5132832;27;20237;-60
2021/08/13 11:01:21;;;;;;;6.78;1.80;;;;;;;17.43;59.84;100507.63;5133605;27;20039;-60
2021/08/13 11:04:01;;;;;;;5.65;1.50;;;;;;;17.44;59.74;100501.25;5133615;27;20543;-60
2021/08/13 11:06:37;;;;;;;8.02;1.70;;;;;;;17.46;59.95;100504.56;5145047;27;20489;-61
2021/08/13 11:09:08;;;;;;;9.20;1.67;;;;;;;17.48;60.46;100505.22;5143627;27;20422;-60
2021/08/13 11:11:50;;;;;;;7.18;1.65;;;;;;;17.51;60.51;100500.50;5143954;27;20043;-61
2021/08/13 11:14:45;;;;;;;5.18;1.20;;;;;;;17.52;59.77;100511.00;5162097;27;20030;-60
2021/08/13 11:17:32;;;;;;;7.85;1.63;;;;;;;17.50;59.55;100501.53;5170234;27;20034;-60
2021/08/13 11:20:00;;;;;;;6.70;1.60;;;;;;;17.52;59.57;100504.84;5112865;27;20035;-59
2021/08/13 11:22:37;;;;;;;9.55;2.33;;;;;;;17.52;59.97;100497.63;5113219;28;20122;-61
2021/08/13 11:25:13;;;;;;;7.55;1.60;;;;;;;17.54;59.80;100494.78;5127958;27;20374;-60
2021/08/13 11:28:14;;;;;;;10.23;1.35;;;;;;;17.56;59.68;100508.78;5132405;27;20299;-61
2021/08/13 11:30:42;;;;;;;6.85;1.30;;;;;;;17.53;59.27;100510.00;5133138;27;20046;-60